createdAt,value
2019-04-11T00:00:35.603Z,2.79
2019-04-11T00:03:04.953Z,2.62
2019-04-11T00:05:31.975Z,2.50
2019-04-11T00:07:59.827Z,2.48
2019-04-11T00:10:29.041Z,2.52
2019-04-11T00:12:56.999Z,2.52
2019-04-11T00:15:24.504Z,2.52
2019-04-11T00:17:52.357Z,2.50
2019-04-11T00:20:20.108Z,2.35
2019-04-11T00:22:47.886Z,2.26
2019-04-11T00:25:15.684Z,2.37
2019-04-11T00:27:43.439Z,2.36
2019-04-11T00:30:10.764Z,2.37
2019-04-11T00:32:38.067Z,2.36
2019-04-11T00:35:05.044Z,2.24
2019-04-11T00:37:32.800Z,2.23
2019-04-11T00:39:59.719Z,2.27
2019-04-11T00:42:26.642Z,2.28
2019-04-11T00:44:54.913Z,2.27
2019-04-11T00:47:22.704Z,2.28
2019-04-11T00:49:50.455Z,2.22
2019-04-11T00:52:18.439Z,2.32
2019-04-11T00:54:46.897Z,2.20
2019-04-11T00:57:14.810Z,2.20
2019-04-11T00:59:42.627Z,2.13
2019-04-11T01:02:09.578Z,2.14
2019-04-11T01:04:37.095Z,2.10
2019-04-11T01:07:04.775Z,2.04
2019-04-11T01:09:32.616Z,2.06
2019-04-11T01:12:00.448Z,1.91
2019-04-11T01:14:38.750Z,1.98
2019-04-11T01:17:06.638Z,1.94
2019-04-11T01:19:35.148Z,1.84
2019-04-11T01:22:02.112Z,1.84
2019-04-11T01:24:31.428Z,1.80
2019-04-11T01:26:59.333Z,1.72
2019-04-11T01:29:27.261Z,1.79
2019-04-11T01:31:58.100Z,1.86
2019-04-11T01:34:26.653Z,1.93
2019-04-11T01:36:53.790Z,1.93
2019-04-11T01:39:32.718Z,1.85
2019-04-11T01:42:00.720Z,1.74
2019-04-11T01:44:28.405Z,1.69
2019-04-11T01:46:56.282Z,1.69
2019-04-11T01:49:25.275Z,1.66
2019-04-11T01:51:53.848Z,1.67
2019-04-11T01:54:21.757Z,1.69
2019-04-11T01:56:49.515Z,1.50
2019-04-11T01:59:17.431Z,1.39
2019-04-11T02:02:03.404Z,1.40
2019-04-11T02:04:32.654Z,1.39
2019-04-11T02:07:00.384Z,1.43
2019-04-11T02:09:28.382Z,1.39
2019-04-11T02:11:56.167Z,1.23
2019-04-11T02:14:24.095Z,1.28
2019-04-11T02:16:52.264Z,1.37
2019-04-11T02:19:19.096Z,1.37
2019-04-11T02:21:47.325Z,1.33
2019-04-11T02:24:17.224Z,1.25
2019-04-11T02:26:47.205Z,1.11
2019-04-11T02:29:14.129Z,1.20
2019-04-11T02:31:42.423Z,1.23
2019-04-11T02:34:11.243Z,1.17
2019-04-11T02:36:38.483Z,1.22
2019-04-11T02:39:12.133Z,1.13
2019-04-11T02:41:38.068Z,1.06
2019-04-11T02:44:11.584Z,1.00
2019-04-11T02:46:42.844Z,1.01
2019-04-11T02:49:03.188Z,0.99
2019-04-11T02:51:31.175Z,0.97
2019-04-11T02:53:58.958Z,0.81
2019-04-11T02:56:27.781Z,1.03
2019-04-11T02:58:55.238Z,0.98
2019-04-11T03:01:24.218Z,0.99
2019-04-11T03:03:51.968Z,0.97
2019-04-11T03:06:19.586Z,0.75
2019-04-11T03:08:48.829Z,0.75
2019-04-11T03:11:16.744Z,0.70
2019-04-11T03:13:46.442Z,0.62
2019-04-11T03:16:29.822Z,0.78
2019-04-11T03:18:58.951Z,0.63
2019-04-11T03:21:20.202Z,0.64
2019-04-11T03:23:44.078Z,0.58
2019-04-11T03:26:12.388Z,0.53
2019-04-11T03:28:42.559Z,0.51
2019-04-11T03:31:41.693Z,0.56
2019-04-11T03:34:39.078Z,0.46
2019-04-11T03:39:01.794Z,0.58
2019-04-11T03:41:23.511Z,0.40
2019-04-11T03:43:50.882Z,0.43
2019-04-11T03:46:25.052Z,0.54
2019-04-11T03:48:52.248Z,0.40
2019-04-11T03:51:08.626Z,0.32
2019-04-11T03:53:37.141Z,0.23
2019-04-11T03:56:04.571Z,0.33
2019-04-11T03:58:33.068Z,0.29
2019-04-11T04:01:03.521Z,0.30
2019-04-11T04:03:30.839Z,0.43
2019-04-11T04:06:00.088Z,0.47
2019-04-11T04:08:29.185Z,0.47
2019-04-11T04:11:16.363Z,0.46
2019-04-11T04:13:45.954Z,0.52
2019-04-11T04:16:32.198Z,0.43
2019-04-11T04:18:56.484Z,0.35
2019-04-11T04:21:35.282Z,0.44
2019-04-11T04:24:04.044Z,0.52
2019-04-11T04:26:31.406Z,0.40
2019-04-11T04:28:59.854Z,0.54
2019-04-11T04:31:28.625Z,0.51
2019-04-11T04:33:57.563Z,0.45
2019-04-11T04:36:26.747Z,0.44
2019-04-11T04:38:54.537Z,0.51
2019-04-11T04:41:35.178Z,0.45
2019-04-11T04:43:52.784Z,0.67
2019-04-11T04:46:34.735Z,0.44
2019-04-11T04:48:49.971Z,0.57
2019-04-11T04:51:19.911Z,0.63
2019-04-11T04:53:47.997Z,0.70
2019-04-11T04:56:16.843Z,0.96
2019-04-11T04:58:44.443Z,0.98
2019-04-11T05:01:12.666Z,1.21
2019-04-11T05:03:40.418Z,1.51
2019-04-11T05:06:10.009Z,1.72
2019-04-11T05:08:37.065Z,1.97
2019-04-11T05:11:04.744Z,2.43
2019-04-11T05:13:32.363Z,2.87
2019-04-11T05:16:12.398Z,4.47
2019-04-11T05:18:28.288Z,5.16
2019-04-11T05:20:55.454Z,4.80
2019-04-11T05:23:25.434Z,5.48
2019-04-11T05:25:53.041Z,6.51
2019-04-11T05:28:19.912Z,6.84
2019-04-11T05:30:46.966Z,6.89
2019-04-11T05:33:13.758Z,7.43
2019-04-11T05:35:41.638Z,7.07
2019-04-11T05:38:08.513Z,7.53
2019-04-11T05:40:35.496Z,7.99
2019-04-11T05:43:02.298Z,6.72
2019-04-11T05:45:29.549Z,5.43
2019-04-11T05:47:58.356Z,4.74
2019-04-11T05:50:28.353Z,3.67
2019-04-11T05:52:56.622Z,3.40
2019-04-11T05:55:24.177Z,3.33
2019-04-11T05:57:52.248Z,3.73
2019-04-11T06:00:23.709Z,4.17
2019-04-11T06:02:53.303Z,4.21
2019-04-11T06:05:32.448Z,4.30
2019-04-11T06:07:58.604Z,4.10
2019-04-11T06:10:46.486Z,4.12
2019-04-11T06:13:16.156Z,4.32
2019-04-11T06:15:56.670Z,4.68
2019-04-11T06:18:35.359Z,4.66
2019-04-11T06:21:15.727Z,4.91
2019-04-11T06:23:45.582Z,5.23
2019-04-11T06:26:21.351Z,5.37
2019-04-11T06:28:53.692Z,5.42
2019-04-11T06:31:24.840Z,5.37
2019-04-11T06:33:56.628Z,5.49
2019-04-11T06:36:37.159Z,5.63
2019-04-11T06:39:11.380Z,5.86
2019-04-11T06:41:52.966Z,6.27
2019-04-11T06:44:24.277Z,6.60
2019-04-11T06:46:58.891Z,7.19
2019-04-11T06:49:32.061Z,8.42
2019-04-11T06:52:00.746Z,10.23
2019-04-11T06:54:47.539Z,11.56
2019-04-11T06:57:16.418Z,8.64
2019-04-11T06:59:44.997Z,7.37
2019-04-11T07:02:17.991Z,6.41
2019-04-11T07:04:53.875Z,10.44
2019-04-11T07:07:22.949Z,12.19
2019-04-11T07:09:53.441Z,9.97
2019-04-11T07:12:22.684Z,8.94
2019-04-11T07:15:08.050Z,8.33
2019-04-11T07:17:54.619Z,7.74
2019-04-11T07:20:41.418Z,9.10
2019-04-11T07:23:26.950Z,8.19
2019-04-11T07:25:58.432Z,7.20
2019-04-11T07:28:36.265Z,7.24
2019-04-11T07:31:16.994Z,7.53
2019-04-11T07:34:03.284Z,8.41
2019-04-11T07:36:48.852Z,7.67
2019-04-11T07:39:17.601Z,7.32
2019-04-11T07:41:47.793Z,7.03
2019-04-11T07:44:17.510Z,6.63
2019-04-11T07:46:55.896Z,6.16
2019-04-11T07:49:28.532Z,6.13
2019-04-11T07:52:00.253Z,6.12
2019-04-11T07:54:28.130Z,6.08
2019-04-11T07:57:04.021Z,6.03
2019-04-11T07:59:51.187Z,6.23
2019-04-11T08:02:24.351Z,6.69
2019-04-11T08:04:55.950Z,6.84
2019-04-11T08:07:30.482Z,6.74
2019-04-11T08:10:02.464Z,6.29
2019-04-11T08:12:32.189Z,6.24
2019-04-11T08:15:17.594Z,6.27
2019-04-11T08:17:46.014Z,10.12
2019-04-11T08:20:33.324Z,12.85
2019-04-11T08:23:03.417Z,10.38
2019-04-11T08:25:33.476Z,10.01
2019-04-11T08:28:07.878Z,8.91
2019-04-11T08:30:35.715Z,8.09
2019-04-11T08:33:04.589Z,7.30
2019-04-11T08:35:36.624Z,7.05
2019-04-11T08:38:05.419Z,6.68
2019-04-11T08:40:51.361Z,6.47
2019-04-11T08:43:21.340Z,5.98
2019-04-11T08:45:54.131Z,6.04
2019-04-11T08:48:21.714Z,6.20
2019-04-11T08:50:56.421Z,6.04
2019-04-11T08:53:43.292Z,6.13
2019-04-11T08:56:10.594Z,6.15
2019-04-11T08:58:42.283Z,6.15
2019-04-11T09:01:11.602Z,6.14
2019-04-11T09:04:03.071Z,6.16
2019-04-11T09:06:26.451Z,5.95
2019-04-11T09:09:13.242Z,6.16
2019-04-11T09:11:42.544Z,6.17
2019-04-11T09:14:28.475Z,6.33
2019-04-11T09:17:03.839Z,6.19
2019-04-11T09:19:41.667Z,6.03
2019-04-11T09:22:10.974Z,6.17
2019-04-11T09:24:43.119Z,6.34
2019-04-11T09:27:21.035Z,6.28
2019-04-11T09:30:02.512Z,6.17
2019-04-11T09:32:48.663Z,5.95
2019-04-11T09:35:33.375Z,5.91
2019-04-11T09:38:06.315Z,5.82
2019-04-11T09:40:52.136Z,5.75
2019-04-11T09:43:30.107Z,5.83
2019-04-11T09:46:08.225Z,5.83
2019-04-11T09:48:52.099Z,5.76
2019-04-11T09:51:29.433Z,5.59
2019-04-11T09:54:08.537Z,5.50
2019-04-11T09:56:54.358Z,5.53
2019-04-11T09:59:27.198Z,5.61
2019-04-11T10:02:12.701Z,5.65
2019-04-11T10:04:41.720Z,5.67
2019-04-11T10:07:11.135Z,5.70
2019-04-11T10:09:44.214Z,5.61
2019-04-11T10:12:29.700Z,5.68
2019-04-11T10:14:57.721Z,5.79
2019-04-11T10:17:33.677Z,5.70
2019-04-11T10:20:02.701Z,5.76
2019-04-11T10:22:32.120Z,5.67
2019-04-11T10:25:01.075Z,5.61
2019-04-11T10:27:49.087Z,5.69
2019-04-11T10:30:36.338Z,5.69
2019-04-11T10:33:22.593Z,5.57
2019-04-11T10:35:51.965Z,5.69
2019-04-11T10:38:20.534Z,5.74
2019-04-11T10:40:58.872Z,5.78
2019-04-11T10:43:26.553Z,5.85
2019-04-11T10:45:55.594Z,5.96
2019-04-11T10:48:35.609Z,5.88
2019-04-11T10:51:11.262Z,5.75
2019-04-11T10:53:39.448Z,5.82
2019-04-11T10:56:24.516Z,5.88
2019-04-11T10:58:53.284Z,5.89
2019-04-11T11:01:38.740Z,5.93
2019-04-11T11:04:07.887Z,5.99
2019-04-11T11:06:35.843Z,5.99
2019-04-11T11:09:12.198Z,5.93
2019-04-11T11:11:44.221Z,6.06
2019-04-11T11:14:29.012Z,6.11
2019-04-11T11:17:07.169Z,6.10
2019-04-11T11:20:10.377Z,6.00
2019-04-11T11:22:56.195Z,6.00
2019-04-11T11:25:48.354Z,6.05
2019-04-11T11:28:32.283Z,5.88
2019-04-11T11:31:22.598Z,5.84
2019-04-11T11:34:15.665Z,6.00
2019-04-11T11:37:07.427Z,6.10
2019-04-11T11:39:58.925Z,6.02
2019-04-11T11:42:44.069Z,6.03
2019-04-11T11:45:37.419Z,6.02
2019-04-11T11:48:33.471Z,6.01
2019-04-11T11:51:33.258Z,6.10
2019-04-11T11:54:21.820Z,6.01
2019-04-11T11:57:10.699Z,5.96
2019-04-11T11:59:58.743Z,5.97
2019-04-11T12:02:46.458Z,6.02
2019-04-11T12:05:34.691Z,5.94
2019-04-11T12:08:28.679Z,5.88
2019-04-11T12:11:15.750Z,6.07
2019-04-11T12:14:15.885Z,6.20
2019-04-11T12:17:05.168Z,6.33
2019-04-11T12:20:01.536Z,6.23
2019-04-11T12:22:44.352Z,6.29
2019-04-11T12:25:31.953Z,6.05
2019-04-11T12:28:21.797Z,6.12
2019-04-11T12:31:09.284Z,5.99
2019-04-11T12:34:14.326Z,5.98
2019-04-11T12:37:00.121Z,6.01
2019-04-11T12:40:03.199Z,5.99
2019-04-11T12:42:48.389Z,6.02
2019-04-11T12:45:38.776Z,5.86
2019-04-11T12:48:26.391Z,5.58
2019-04-11T12:51:30.162Z,5.56
2019-04-11T12:54:17.835Z,5.54
2019-04-11T12:57:21.958Z,5.39
2019-04-11T13:00:11.631Z,5.38
2019-04-11T13:03:01.840Z,5.32
2019-04-11T13:05:54.827Z,5.65
2019-04-11T13:09:01.044Z,5.68
2019-04-11T13:11:57.324Z,5.63
2019-04-11T13:14:44.519Z,5.76
2019-04-11T13:17:47.284Z,5.61
2019-04-11T13:20:34.513Z,5.54
2019-04-11T13:23:21.728Z,5.39
2019-04-11T13:26:25.755Z,5.45
2019-04-11T13:29:12.970Z,5.52
2019-04-11T13:32:06.185Z,5.65
2019-04-11T13:34:53.855Z,5.58
2019-04-11T13:37:58.049Z,5.65
2019-04-11T13:40:45.822Z,5.62
2019-04-11T13:43:42.763Z,5.73
2019-04-11T13:46:35.827Z,5.68
2019-04-11T13:49:26.212Z,5.82
2019-04-11T13:52:28.743Z,5.70
2019-04-11T13:55:16.388Z,5.81
2019-04-11T13:58:03.758Z,5.96
2019-04-11T14:00:49.380Z,6.00
2019-04-11T14:03:53.163Z,6.00
2019-04-11T14:06:38.687Z,5.98
2019-04-11T14:09:30.506Z,5.97
2019-04-11T14:12:15.908Z,5.95
2019-04-11T14:15:08.864Z,5.82
2019-04-11T14:17:56.129Z,5.70
2019-04-11T14:20:43.252Z,5.67
2019-04-11T14:23:45.561Z,5.81
2019-04-11T14:26:36.846Z,5.73
2019-04-11T14:29:41.893Z,5.73
2019-04-11T14:32:29.224Z,5.68
2019-04-11T14:35:19.141Z,5.64
2019-04-11T14:38:06.297Z,5.63
2019-04-11T14:41:11.972Z,5.56
2019-04-11T14:44:00.509Z,5.55
2019-04-11T14:46:50.142Z,5.53
2019-04-11T14:49:35.818Z,5.40
2019-04-11T14:52:32.442Z,5.36
2019-04-11T14:55:19.626Z,5.36
2019-04-11T14:58:18.884Z,5.25
2019-04-11T15:01:05.919Z,5.28
2019-04-11T15:04:00.937Z,5.27
2019-04-11T15:06:57.752Z,5.28
2019-04-11T15:10:02.284Z,5.27
2019-04-11T15:12:49.495Z,5.27
2019-04-11T15:15:43.180Z,5.31
2019-04-11T15:18:29.462Z,5.20
2019-04-11T15:21:16.424Z,5.29
2019-04-11T15:24:01.250Z,5.29
2019-04-11T15:26:52.752Z,5.19
2019-04-11T15:29:38.202Z,5.31
2019-04-11T15:32:42.116Z,5.40
2019-04-11T15:35:27.824Z,5.44
2019-04-11T15:38:32.728Z,5.49
2019-04-11T15:41:18.237Z,5.40
2019-04-11T15:44:21.724Z,5.34
2019-04-11T15:47:18.784Z,5.36
2019-04-11T15:50:03.962Z,5.33
2019-04-11T15:52:51.075Z,5.27
2019-04-11T15:55:54.869Z,5.08
2019-04-11T15:58:47.965Z,5.10
2019-04-11T16:01:44.199Z,5.16
2019-04-11T16:04:31.516Z,5.16
2019-04-11T16:07:37.401Z,5.17
2019-04-11T16:10:24.577Z,5.14
2019-04-11T16:13:29.787Z,5.01
2019-04-11T16:16:15.509Z,5.05
2019-04-11T16:19:20.767Z,4.93
2019-04-11T16:22:24.875Z,5.02
2019-04-11T16:25:13.015Z,5.07
2019-04-11T16:27:59.858Z,5.08
2019-04-11T16:30:27.457Z,5.01
2019-04-11T16:33:24.528Z,4.98
2019-04-11T16:36:11.596Z,4.92
2019-04-11T16:38:58.899Z,4.87
2019-04-11T16:41:48.602Z,4.85
2019-04-11T16:44:46.312Z,4.86
2019-04-11T16:47:40.028Z,4.83
2019-04-11T16:50:27.819Z,4.90
2019-04-11T16:53:13.070Z,4.88
2019-04-11T16:55:58.981Z,4.75
2019-04-11T16:58:49.360Z,4.75
2019-04-11T17:01:32.950Z,4.65
2019-04-11T17:04:18.481Z,4.66
2019-04-11T17:07:05.474Z,4.67
2019-04-11T17:09:34.003Z,4.66
2019-04-11T17:12:00.938Z,4.65
2019-04-11T17:14:30.987Z,4.64
2019-04-11T17:17:00.678Z,4.53
2019-04-11T17:19:26.036Z,4.50
2019-04-11T17:21:53.172Z,4.54
2019-04-11T17:24:19.893Z,4.54
2019-04-11T17:26:46.708Z,4.59
2019-04-11T17:29:13.654Z,4.48
2019-04-11T17:31:40.908Z,4.54
2019-04-11T17:34:07.676Z,4.55
2019-04-11T17:36:37.110Z,4.52
2019-04-11T17:39:07.160Z,4.52
2019-04-11T17:41:35.073Z,4.51
2019-04-11T17:44:02.007Z,4.50
2019-04-11T17:46:28.626Z,4.46
2019-04-11T17:48:55.529Z,4.47
2019-04-11T17:51:22.620Z,4.42
2019-04-11T17:53:49.390Z,4.40
2019-04-11T17:56:16.370Z,4.25
2019-04-11T17:58:43.172Z,4.31
2019-04-11T18:01:10.033Z,4.27
2019-04-11T18:03:36.732Z,4.30
2019-04-11T18:06:03.698Z,4.33
2019-04-11T18:08:30.622Z,4.33
2019-04-11T18:10:57.669Z,4.32
2019-04-11T18:13:24.565Z,4.35
2019-04-11T18:15:51.416Z,4.32
2019-04-11T18:18:18.315Z,4.29
2019-04-11T18:20:45.357Z,4.29
2019-04-11T18:23:12.387Z,4.29
2019-04-11T18:25:39.350Z,4.22
2019-04-11T18:28:06.500Z,4.24
2019-04-11T18:30:33.509Z,4.21
2019-04-11T18:33:00.509Z,4.24
2019-04-11T18:35:31.791Z,4.22
2019-04-11T18:37:56.740Z,4.23
2019-04-11T18:40:23.515Z,4.22
2019-04-11T18:42:50.732Z,4.22
2019-04-11T18:45:17.631Z,4.24
2019-04-11T18:47:44.930Z,4.18
2019-04-11T18:50:12.008Z,4.20
2019-04-11T18:52:39.167Z,4.17
2019-04-11T18:55:06.520Z,4.16
2019-04-11T18:57:33.280Z,4.15
2019-04-11T19:00:02.353Z,4.12
2019-04-11T19:02:28.888Z,4.08
2019-04-11T19:04:55.728Z,4.15
2019-04-11T19:07:27.917Z,4.16
2019-04-11T19:09:51.616Z,4.19
2019-04-11T19:12:18.656Z,4.09
2019-04-11T19:14:46.114Z,4.08
2019-04-11T19:17:15.432Z,4.01
2019-04-11T19:20:00.648Z,4.12
2019-04-11T19:22:45.666Z,4.08
2019-04-11T19:25:31.670Z,4.09
2019-04-11T19:28:17.053Z,4.01
2019-04-11T19:31:02.491Z,3.97
2019-04-11T19:33:47.820Z,4.03
2019-04-11T19:36:32.880Z,4.01
2019-04-11T19:39:19.020Z,4.03
2019-04-11T19:42:08.854Z,4.02
2019-04-11T19:44:51.385Z,4.04
2019-04-11T19:47:37.203Z,4.03
2019-04-11T19:50:22.549Z,3.88
2019-04-11T19:53:08.048Z,3.92
2019-04-11T19:55:55.453Z,3.95
2019-04-11T19:58:42.332Z,3.93
2019-04-11T20:01:27.880Z,3.99
2019-04-11T20:04:13.087Z,3.87
2019-04-11T20:06:59.354Z,3.76
2019-04-11T20:09:45.007Z,3.81
2019-04-11T20:12:30.815Z,3.89
2019-04-11T20:15:15.867Z,3.98
2019-04-11T20:18:00.817Z,3.96
2019-04-11T20:20:46.229Z,3.97
2019-04-11T20:23:31.776Z,3.89
2019-04-11T20:26:19.958Z,3.89
2019-04-11T20:29:04.557Z,3.88
2019-04-11T20:31:50.497Z,3.89
2019-04-11T20:34:38.042Z,3.83
2019-04-11T20:37:24.487Z,3.82
2019-04-11T20:40:09.696Z,3.83
2019-04-11T20:42:55.744Z,3.79
2019-04-11T20:45:42.397Z,3.82
2019-04-11T20:48:27.291Z,3.67
2019-04-11T20:51:13.285Z,3.70
2019-04-11T20:53:58.920Z,3.69
2019-04-11T20:56:44.404Z,3.65
2019-04-11T20:59:34.766Z,3.68
2019-04-11T21:02:16.600Z,3.63
2019-04-11T21:05:02.075Z,3.66
2019-04-11T21:07:48.005Z,3.67
2019-04-11T21:10:34.578Z,3.71
2019-04-11T21:13:20.067Z,3.58
2019-04-11T21:16:05.306Z,3.60
2019-04-11T21:18:50.931Z,3.66
2019-04-11T21:21:37.289Z,3.61
2019-04-11T21:24:22.405Z,3.58
2019-04-11T21:27:07.781Z,3.61
2019-04-11T21:29:53.174Z,3.52
2019-04-11T21:32:38.684Z,3.52
2019-04-11T21:35:24.639Z,3.53
2019-04-11T21:38:09.804Z,3.58
2019-04-11T21:40:55.199Z,3.53
2019-04-11T21:43:40.577Z,3.52
2019-04-11T21:46:26.377Z,3.52
2019-04-11T21:49:11.836Z,3.58
2019-04-11T21:51:57.413Z,3.51
2019-04-11T21:54:45.067Z,3.53
2019-04-11T21:57:30.232Z,3.57
2019-04-11T22:00:22.187Z,3.46
2019-04-11T22:03:06.742Z,3.56
2019-04-11T22:05:52.428Z,3.55
2019-04-11T22:08:37.771Z,3.58
2019-04-11T22:11:23.160Z,3.59
2019-04-11T22:14:10.973Z,3.59
2019-04-11T22:16:55.887Z,3.59
2019-04-11T22:19:45.487Z,3.49
2019-04-11T22:22:28.967Z,3.58
2019-04-11T22:25:15.027Z,3.60
2019-04-11T22:28:00.334Z,3.55
2019-04-11T22:30:46.439Z,3.53
2019-04-11T22:33:43.118Z,3.46
2019-04-11T22:36:30.728Z,3.40
2019-04-11T22:39:15.499Z,3.47
2019-04-11T22:42:01.365Z,3.50
2019-04-11T22:44:47.283Z,3.43
2019-04-11T22:47:32.586Z,3.46
2019-04-11T22:50:18.219Z,3.45
2019-04-11T22:53:04.151Z,3.37
2019-04-11T22:55:49.999Z,3.40
2019-04-11T22:58:35.269Z,3.42
2019-04-11T23:01:21.296Z,3.45
2019-04-11T23:04:06.837Z,3.39
2019-04-11T23:06:52.635Z,3.44
2019-04-11T23:09:38.719Z,3.44
2019-04-11T23:12:24.337Z,3.43
2019-04-11T23:15:14.639Z,3.44
2019-04-11T23:17:58.332Z,3.37
2019-04-11T23:20:44.687Z,3.39
2019-04-11T23:23:29.941Z,3.29
2019-04-11T23:26:15.180Z,3.33
2019-04-11T23:29:00.457Z,3.36
2019-04-11T23:31:45.558Z,3.34
2019-04-11T23:34:31.030Z,3.31
2019-04-11T23:37:18.738Z,3.25
2019-04-11T23:40:03.939Z,3.28
2019-04-11T23:42:50.142Z,3.37
2019-04-11T23:45:36.612Z,3.36
2019-04-11T23:48:23.964Z,3.36
2019-04-11T23:51:08.700Z,3.39
2019-04-11T23:53:53.535Z,3.32
2019-04-11T23:56:38.841Z,3.32
2019-04-11T23:59:24.972Z,3.32
